Lull, Texas
Current Conditions -  °F | °C
As of 12:53 AM on Saturday 25 Oct 2014 (Local Time) from KMFE Reporting Station
Clear Clear  
Wind Chill: 68°   Ceiling: Unl
Heat Index: 68°   Visibility: 10mi
Dew Point: 63°   Wind: 0mph
Humidity: 84%   Direction: NA
Pressure: 30.15"   Gusts: NA
Location:  26.2938°N, 98.1548°W
Report Text: KMFE 250553Z AUTO 00000KT 10SM CLR 20/17 A3015 RMK AO2 SLP206 T02000172 10267 20194 403060178 51003
Loading
Personal Weather Stations






























Interactive Weather Map
Tropical Storm Tracking
New forecast layout! Learn more

10-Day Weather Forecast

Advertisements
Track Severe Weather on mobile